sensor_id;sensor_type;location;lat;lon;timestamp;pressure;altitude;pressure_sealevel;temperature;humidity
10806;BME280;5455;53.224;6.000;2023-04-20T00:01:19;102569.78;;;7.23;100.00
10806;BME280;5455;53.224;6.000;2023-04-20T00:03:46;102569.25;;;7.21;100.00
10806;BME280;5455;53.224;6.000;2023-04-20T00:06:13;102567.03;;;7.23;100.00
10806;BME280;5455;53.224;6.000;2023-04-20T00:08:41;102559.91;;;7.22;100.00
10806;BME280;5455;53.224;6.000;2023-04-20T00:11:09;102554.41;;;7.22;100.00
10806;BME280;5455;53.224;6.000;2023-04-20T00:13:37;102554.06;;;7.29;100.00
10806;BME280;5455;53.224;6.000;2023-04-20T00:16:04;102554.56;;;7.31;100.00
10806;BME280;5455;53.224;6.000;2023-04-20T00:18:31;102548.00;;;7.32;100.00
10806;BME280;5455;53.224;6.000;2023-04-20T00:20:58;102543.91;;;7.29;100.00
10806;BME280;5455;53.224;6.000;2023-04-20T00:23:25;102538.84;;;7.36;100.00
10806;BME280;5455;53.224;6.000;2023-04-20T00:25:52;102541.00;;;7.39;100.00
10806;BME280;5455;53.224;6.000;2023-04-20T00:28:20;102527.88;;;7.36;100.00
10806;BME280;5455;53.224;6.000;2023-04-20T00:30:47;102533.97;;;7.33;100.00
10806;BME280;5455;53.224;6.000;2023-04-20T00:33:14;102529.00;;;7.35;100.00
10806;BME280;5455;53.224;6.000;2023-04-20T00:35:41;102521.81;;;7.39;100.00
10806;BME280;5455;53.224;6.000;2023-04-20T00:38:08;102519.22;;;7.48;100.00
10806;BME280;5455;53.224;6.000;2023-04-20T00:40:35;102524.72;;;7.48;100.00
10806;BME280;5455;53.224;6.000;2023-04-20T00:43:10;102510.91;;;7.53;100.00
10806;BME280;5455;53.224;6.000;2023-04-20T00:45:37;102517.72;;;7.55;100.00
10806;BME280;5455;53.224;6.000;2023-04-20T00:48:05;102514.97;;;7.55;100.00
10806;BME280;5455;53.224;6.000;2023-04-20T00:50:33;102504.81;;;7.56;100.00
10806;BME280;5455;53.224;6.000;2023-04-20T00:53:01;102504.59;;;7.52;100.00
10806;BME280;5455;53.224;6.000;2023-04-20T00:55:29;102501.16;;;7.60;100.00
10806;BME280;5455;53.224;6.000;2023-04-20T00:57:57;102494.88;;;7.60;100.00
10806;BME280;5455;53.224;6.000;2023-04-20T01:00:24;102502.66;;;7.71;100.00
10806;BME280;5455;53.224;6.000;2023-04-20T01:02:53;102499.38;;;7.69;100.00
10806;BME280;5455;53.224;6.000;2023-04-20T01:05:20;102500.94;;;7.75;100.00
10806;BME280;5455;53.224;6.000;2023-04-20T01:07:48;102488.16;;;7.85;100.00
10806;BME280;5455;53.224;6.000;2023-04-20T01:10:15;102483.19;;;7.87;100.00
10806;BME280;5455;53.224;6.000;2023-04-20T01:12:43;102479.03;;;7.89;100.00
10806;BME280;5455;53.224;6.000;2023-04-20T01:15:10;102472.09;;;7.92;100.00
10806;BME280;5455;53.224;6.000;2023-04-20T01:17:38;102478.69;;;7.91;100.00
10806;BME280;5455;53.224;6.000;2023-04-20T01:20:07;102474.53;;;7.93;100.00
10806;BME280;5455;53.224;6.000;2023-04-20T01:22:49;102463.88;;;8.05;100.00
10806;BME280;5455;53.224;6.000;2023-04-20T01:25:16;102461.94;;;8.06;100.00
10806;BME280;5455;53.224;6.000;2023-04-20T01:27:44;102459.53;;;8.04;100.00
10806;BME280;5455;53.224;6.000;2023-04-20T01:30:12;102456.16;;;8.07;100.00
10806;BME280;5455;53.224;6.000;2023-04-20T01:32:39;102446.00;;;8.08;100.00
10806;BME280;5455;53.224;6.000;2023-04-20T01:35:07;102450.28;;;8.14;100.00
10806;BME280;5455;53.224;6.000;2023-04-20T01:37:37;102445.91;;;8.13;100.00
10806;BME280;5455;53.224;6.000;2023-04-20T01:40:05;102438.75;;;8.12;100.00
10806;BME280;5455;53.224;6.000;2023-04-20T01:42:32;102439.47;;;8.17;100.00
10806;BME280;5455;53.224;6.000;2023-04-20T01:44:59;102438.44;;;8.32;100.00
10806;BME280;5455;53.224;6.000;2023-04-20T01:47:28;102434.25;;;8.35;100.00
10806;BME280;5455;53.224;6.000;2023-04-20T01:49:55;102434.88;;;8.32;100.00
10806;BME280;5455;53.224;6.000;2023-04-20T01:52:24;102426.47;;;8.23;100.00
10806;BME280;5455;53.224;6.000;2023-04-20T01:54:51;102432.38;;;8.16;100.00
10806;BME280;5455;53.224;6.000;2023-04-20T01:57:18;102414.66;;;8.22;100.00
10806;BME280;5455;53.224;6.000;2023-04-20T01:59:45;102420.38;;;8.26;100.00
10806;BME280;5455;53.224;6.000;2023-04-20T02:02:11;102414.66;;;8.22;100.00
10806;BME280;5455;53.224;6.000;2023-04-20T02:04:39;102409.88;;;8.14;100.00
10806;BME280;5455;53.224;6.000;2023-04-20T02:07:05;102406.63;;;8.12;100.00
10806;BME280;5455;53.224;6.000;2023-04-20T02:09:37;102392.97;;;8.21;100.00
10806;BME280;5455;53.224;6.000;2023-04-20T02:12:04;102388.22;;;8.13;100.00
10806;BME280;5455;53.224;6.000;2023-04-20T02:14:31;102382.69;;;7.99;100.00
10806;BME280;5455;53.224;6.000;2023-04-20T02:16:59;102379.22;;;7.94;100.00
10806;BME280;5455;53.224;6.000;2023-04-20T02:19:27;102378.63;;;7.97;100.00
10806;BME280;5455;53.224;6.000;2023-04-20T02:21:53;102377.00;;;7.96;100.00
10806;BME280;5455;53.224;6.000;2023-04-20T02:24:21;102372.53;;;8.00;100.00
10806;BME280;5455;53.224;6.000;2023-04-20T02:26:47;102368.66;;;8.01;100.00
10806;BME280;5455;53.224;6.000;2023-04-20T02:29:15;102364.38;;;7.95;100.00
10806;BME280;5455;53.224;6.000;2023-04-20T02:31:43;102368.03;;;7.90;100.00
10806;BME280;5455;53.224;6.000;2023-04-20T02:34:10;102367.13;;;7.95;100.00
10806;BME280;5455;53.224;6.000;2023-04-20T02:36:37;102361.75;;;7.90;100.00
10806;BME280;5455;53.224;6.000;2023-04-20T02:39:04;102352.97;;;7.88;100.00
10806;BME280;5455;53.224;6.000;2023-04-20T02:41:32;102359.69;;;7.82;100.00
10806;BME280;5455;53.224;6.000;2023-04-20T02:44:01;102357.97;;;7.86;100.00
10806;BME280;5455;53.224;6.000;2023-04-20T02:46:30;102357.88;;;7.91;100.00
10806;BME280;5455;53.224;6.000;2023-04-20T02:48:58;102346.88;;;7.91;100.00
10806;BME280;5455;53.224;6.000;2023-04-20T02:51:26;102356.56;;;8.02;100.00
10806;BME280;5455;53.224;6.000;2023-04-20T02:53:54;102349.31;;;8.06;100.00
10806;BME280;5455;53.224;6.000;2023-04-20T02:56:26;102341.91;;;8.06;100.00
10806;BME280;5455;53.224;6.000;2023-04-20T02:58:56;102347.50;;;8.01;100.00
10806;BME280;5455;53.224;6.000;2023-04-20T03:01:47;102342.63;;;8.12;100.00
10806;BME280;5455;53.224;6.000;2023-04-20T03:04:18;102333.38;;;8.08;100.00
10806;BME280;5455;53.224;6.000;2023-04-20T03:06:56;102336.91;;;8.08;100.00
10806;BME280;5455;53.224;6.000;2023-04-20T03:09:27;102337.13;;;8.12;100.00
10806;BME280;5455;53.224;6.000;2023-04-20T03:12:13;102333.75;;;8.15;100.00
10806;BME280;5455;53.224;6.000;2023-04-20T03:14:49;102325.50;;;8.15;100.00
10806;BME280;5455;53.224;6.000;2023-04-20T03:17:21;102320.13;;;8.10;100.00
10806;BME280;5455;53.224;6.000;2023-04-20T03:19:49;102313.72;;;8.14;100.00
10806;BME280;5455;53.224;6.000;2023-04-20T03:22:16;102313.22;;;8.26;100.00
10806;BME280;5455;53.224;6.000;2023-04-20T03:24:47;102299.19;;;8.27;100.00
10806;BME280;5455;53.224;6.000;2023-04-20T03:27:38;102303.16;;;8.35;100.00
10806;BME280;5455;53.224;6.000;2023-04-20T03:30:10;102296.50;;;8.36;100.00
10806;BME280;5455;53.224;6.000;2023-04-20T03:32:37;102298.66;;;8.39;100.00
10806;BME280;5455;53.224;6.000;2023-04-20T03:35:05;102297.81;;;8.39;100.00
10806;BME280;5455;53.224;6.000;2023-04-20T03:37:32;102299.47;;;8.40;100.00
10806;BME280;5455;53.224;6.000;2023-04-20T03:39:59;102309.53;;;8.44;100.00
10806;BME280;5455;53.224;6.000;2023-04-20T03:42:26;102305.72;;;8.54;100.00
10806;BME280;5455;53.224;6.000;2023-04-20T03:44:53;102304.03;;;8.44;100.00
10806;BME280;5455;53.224;6.000;2023-04-20T03:47:20;102299.97;;;8.42;100.00
10806;BME280;5455;53.224;6.000;2023-04-20T03:49:48;102295.28;;;8.42;100.00
10806;BME280;5455;53.224;6.000;2023-04-20T03:52:15;102292.66;;;8.37;100.00
10806;BME280;5455;53.224;6.000;2023-04-20T03:54:42;102292.78;;;8.32;100.00
10806;BME280;5455;53.224;6.000;2023-04-20T03:57:12;102283.50;;;8.28;100.00
10806;BME280;5455;53.224;6.000;2023-04-20T03:59:40;102287.66;;;8.25;100.00
10806;BME280;5455;53.224;6.000;2023-04-20T04:02:09;102285.03;;;8.34;100.00
10806;BME280;5455;53.224;6.000;2023-04-20T04:04:37;102281.03;;;8.40;100.00
10806;BME280;5455;53.224;6.000;2023-04-20T04:07:04;102282.16;;;8.39;100.00
10806;BME280;5455;53.224;6.000;2023-04-20T04:09:30;102283.19;;;8.43;100.00
10806;BME280;5455;53.224;6.000;2023-04-20T04:11:58;102281.34;;;8.39;100.00
10806;BME280;5455;53.224;6.000;2023-04-20T04:14:27;102286.22;;;8.42;100.00
10806;BME280;5455;53.224;6.000;2023-04-20T04:16:56;102287.22;;;8.46;100.00
10806;BME280;5455;53.224;6.000;2023-04-20T04:19:24;102292.41;;;8.47;100.00
10806;BME280;5455;53.224;6.000;2023-04-20T04:21:51;102288.53;;;8.48;100.00
10806;BME280;5455;53.224;6.000;2023-04-20T04:24:18;102283.66;;;8.45;100.00
10806;BME280;5455;53.224;6.000;2023-04-20T04:26:57;102289.91;;;8.37;100.00
10806;BME280;5455;53.224;6.000;2023-04-20T04:29:27;102289.59;;;8.39;100.00
10806;BME280;5455;53.224;6.000;2023-04-20T04:32:04;102278.16;;;8.45;100.00
10806;BME280;5455;53.224;6.000;2023-04-20T04:34:31;102273.09;;;8.39;100.00
10806;BME280;5455;53.224;6.000;2023-04-20T04:37:00;102273.41;;;8.37;100.00
10806;BME280;5455;53.224;6.000;2023-04-20T04:39:38;102277.44;;;8.53;97.14
10806;BME280;5455;53.224;6.000;2023-04-20T04:42:15;102275.63;;;8.49;96.08
10806;BME280;5455;53.224;6.000;2023-04-20T04:44:42;102277.97;;;8.42;94.04
10806;BME280;5455;53.224;6.000;2023-04-20T04:47:13;102269.00;;;8.50;91.73
10806;BME280;5455;53.224;6.000;2023-04-20T04:49:41;102249.06;;;8.44;92.02
10806;BME280;5455;53.224;6.000;2023-04-20T04:52:08;102268.13;;;8.41;91.66
10806;BME280;5455;53.224;6.000;2023-04-20T04:54:35;102262.09;;;8.39;91.65
10806;BME280;5455;53.224;6.000;2023-04-20T04:57:02;102270.25;;;8.44;91.66
10806;BME280;5455;53.224;6.000;2023-04-20T04:59:29;102264.22;;;8.42;91.12
10806;BME280;5455;53.224;6.000;2023-04-20T05:01:56;102271.97;;;8.40;91.09
10806;BME280;5455;53.224;6.000;2023-04-20T05:04:23;102274.25;;;8.38;91.73
10806;BME280;5455;53.224;6.000;2023-04-20T05:06:51;102273.91;;;8.39;91.39
10806;BME280;5455;53.224;6.000;2023-04-20T05:09:18;102270.25;;;8.44;91.73
10806;BME280;5455;53.224;6.000;2023-04-20T05:11:46;102274.69;;;8.53;91.06
10806;BME280;5455;53.224;6.000;2023-04-20T05:14:13;102266.19;;;8.63;89.65
10806;BME280;5455;53.224;6.000;2023-04-20T05:16:40;102264.97;;;8.69;88.64
10806;BME280;5455;53.224;6.000;2023-04-20T05:19:07;102264.13;;;8.69;88.36
10806;BME280;5455;53.224;6.000;2023-04-20T05:21:34;102258.97;;;8.67;88.69
10806;BME280;5455;53.224;6.000;2023-04-20T05:24:02;102255.41;;;8.67;89.50
10806;BME280;5455;53.224;6.000;2023-04-20T05:26:28;102259.94;;;8.71;88.89
10806;BME280;5455;53.224;6.000;2023-04-20T05:28:55;102255.94;;;8.77;87.88
10806;BME280;5455;53.224;6.000;2023-04-20T05:31:23;102258.59;;;8.82;87.14
10806;BME280;5455;53.224;6.000;2023-04-20T05:33:50;102263.28;;;8.82;86.24
10806;BME280;5455;53.224;6.000;2023-04-20T05:36:17;102255.22;;;8.85;85.81
10806;BME280;5455;53.224;6.000;2023-04-20T05:38:44;102254.59;;;8.89;85.66
10806;BME280;5455;53.224;6.000;2023-04-20T05:41:11;102255.09;;;8.91;85.94
10806;BME280;5455;53.224;6.000;2023-04-20T05:43:39;102261.91;;;8.93;84.71
10806;BME280;5455;53.224;6.000;2023-04-20T05:46:06;102275.44;;;8.90;83.15
10806;BME280;5455;53.224;6.000;2023-04-20T05:48:33;102267.19;;;8.90;81.37
10806;BME280;5455;53.224;6.000;2023-04-20T05:51:00;102277.09;;;8.91;81.50
10806;BME280;5455;53.224;6.000;2023-04-20T05:53:27;102274.66;;;8.89;81.39
10806;BME280;5455;53.224;6.000;2023-04-20T05:55:54;102268.97;;;8.85;80.32
10806;BME280;5455;53.224;6.000;2023-04-20T05:58:22;102264.72;;;8.79;78.95
10806;BME280;5455;53.224;6.000;2023-04-20T06:00:49;102260.47;;;8.73;79.85
10806;BME280;5455;53.224;6.000;2023-04-20T06:03:16;102261.78;;;8.76;79.03
10806;BME280;5455;53.224;6.000;2023-04-20T06:05:43;102267.56;;;8.74;79.97
10806;BME280;5455;53.224;6.000;2023-04-20T06:08:10;102267.28;;;8.76;79.34
10806;BME280;5455;53.224;6.000;2023-04-20T06:10:37;102270.03;;;8.76;79.49
10806;BME280;5455;53.224;6.000;2023-04-20T06:13:04;102262.69;;;8.71;78.85
10806;BME280;5455;53.224;6.000;2023-04-20T06:15:31;102266.78;;;8.74;80.28
10806;BME280;5455;53.224;6.000;2023-04-20T06:17:58;102268.19;;;8.71;81.51
10806;BME280;5455;53.224;6.000;2023-04-20T06:20:27;102267.56;;;8.74;80.29
10806;BME280;5455;53.224;6.000;2023-04-20T06:22:54;102259.47;;;8.69;81.33
10806;BME280;5455;53.224;6.000;2023-04-20T06:25:21;102266.34;;;8.58;85.44
10806;BME280;5455;53.224;6.000;2023-04-20T06:27:48;102269.91;;;8.59;87.37
10806;BME280;5455;53.224;6.000;2023-04-20T06:30:18;102265.16;;;8.73;90.27
10806;BME280;5455;53.224;6.000;2023-04-20T06:32:45;102267.72;;;8.92;91.64
10806;BME280;5455;53.224;6.000;2023-04-20T06:35:12;102272.28;;;8.96;90.97
10806;BME280;5455;53.224;6.000;2023-04-20T06:37:39;102269.34;;;8.93;90.82
10806;BME280;5455;53.224;6.000;2023-04-20T06:40:06;102274.97;;;8.88;91.06
10806;BME280;5455;53.224;6.000;2023-04-20T06:42:34;102264.44;;;8.90;90.35
10806;BME280;5455;53.224;6.000;2023-04-20T06:45:04;102264.09;;;8.82;89.59
10806;BME280;5455;53.224;6.000;2023-04-20T06:47:32;102267.47;;;8.79;91.01
10806;BME280;5455;53.224;6.000;2023-04-20T06:50:04;102261.66;;;8.81;92.94
10806;BME280;5455;53.224;6.000;2023-04-20T06:52:36;102261.53;;;8.64;92.62
10806;BME280;5455;53.224;6.000;2023-04-20T06:55:04;102276.38;;;8.63;94.51
10806;BME280;5455;53.224;6.000;2023-04-20T06:57:31;102266.16;;;8.77;94.60
10806;BME280;5455;53.224;6.000;2023-04-20T06:59:58;102271.16;;;8.75;92.14
10806;BME280;5455;53.224;6.000;2023-04-20T07:02:25;102268.03;;;8.68;92.50
10806;BME280;5455;53.224;6.000;2023-04-20T07:04:52;102267.44;;;8.57;89.86
10806;BME280;5455;53.224;6.000;2023-04-20T07:07:19;102258.31;;;8.48;88.38
10806;BME280;5455;53.224;6.000;2023-04-20T07:09:46;102273.78;;;8.44;88.63
10806;BME280;5455;53.224;6.000;2023-04-20T07:12:13;102260.66;;;8.41;88.89
10806;BME280;5455;53.224;6.000;2023-04-20T07:14:41;102260.97;;;8.40;90.39
10806;BME280;5455;53.224;6.000;2023-04-20T07:17:08;102262.84;;;8.17;94.76
10806;BME280;5455;53.224;6.000;2023-04-20T07:19:35;102250.34;;;7.97;99.90
10806;BME280;5455;53.224;6.000;2023-04-20T07:22:02;102248.66;;;7.74;100.00
10806;BME280;5455;53.224;6.000;2023-04-20T07:24:29;102247.31;;;7.44;100.00
10806;BME280;5455;53.224;6.000;2023-04-20T07:26:56;102252.38;;;7.24;100.00
10806;BME280;5455;53.224;6.000;2023-04-20T07:29:23;102253.47;;;7.22;100.00
10806;BME280;5455;53.224;6.000;2023-04-20T07:31:51;102253.97;;;7.25;100.00
10806;BME280;5455;53.224;6.000;2023-04-20T07:34:18;102252.78;;;7.31;100.00
10806;BME280;5455;53.224;6.000;2023-04-20T07:36:45;102262.25;;;7.38;100.00
10806;BME280;5455;53.224;6.000;2023-04-20T07:39:12;102255.75;;;7.48;100.00
10806;BME280;5455;53.224;6.000;2023-04-20T07:41:41;102252.41;;;7.51;100.00
10806;BME280;5455;53.224;6.000;2023-04-20T07:44:11;102247.09;;;7.54;100.00
10806;BME280;5455;53.224;6.000;2023-04-20T07:46:39;102251.00;;;7.53;100.00
10806;BME280;5455;53.224;6.000;2023-04-20T07:49:06;102245.88;;;7.60;100.00
10806;BME280;5455;53.224;6.000;2023-04-20T07:51:33;102236.03;;;7.59;100.00
10806;BME280;5455;53.224;6.000;2023-04-20T07:54:01;102241.53;;;7.59;100.00
10806;BME280;5455;53.224;6.000;2023-04-20T07:56:28;102244.88;;;7.70;100.00
10806;BME280;5455;53.224;6.000;2023-04-20T07:58:56;102250.91;;;7.72;100.00
10806;BME280;5455;53.224;6.000;2023-04-20T08:01:24;102253.34;;;7.60;100.00
10806;BME280;5455;53.224;6.000;2023-04-20T08:03:54;102242.03;;;7.48;100.00
10806;BME280;5455;53.224;6.000;2023-04-20T08:06:21;102242.53;;;7.50;100.00
10806;BME280;5455;53.224;6.000;2023-04-20T08:08:49;102246.50;;;7.57;100.00
10806;BME280;5455;53.224;6.000;2023-04-20T08:11:16;102251.47;;;7.55;100.00
10806;BME280;5455;53.224;6.000;2023-04-20T08:13:43;102247.31;;;7.58;100.00
10806;BME280;5455;53.224;6.000;2023-04-20T08:16:10;102242.94;;;7.84;100.00
10806;BME280;5455;53.224;6.000;2023-04-20T08:18:37;102249.75;;;8.00;100.00
10806;BME280;5455;53.224;6.000;2023-04-20T08:21:04;102239.25;;;8.16;100.00
10806;BME280;5455;53.224;6.000;2023-04-20T08:23:31;102239.63;;;8.37;100.00
10806;BME280;5455;53.224;6.000;2023-04-20T08:25:58;102240.81;;;8.44;100.00
10806;BME280;5455;53.224;6.000;2023-04-20T08:28:25;102245.31;;;8.40;100.00
10806;BME280;5455;53.224;6.000;2023-04-20T08:31:01;102250.09;;;8.21;100.00
10806;BME280;5455;53.224;6.000;2023-04-20T08:33:28;102245.63;;;8.11;100.00
10806;BME280;5455;53.224;6.000;2023-04-20T08:35:55;102245.28;;;7.91;100.00
10806;BME280;5455;53.224;6.000;2023-04-20T08:38:22;102233.28;;;7.87;100.00
10806;BME280;5455;53.224;6.000;2023-04-20T08:41:00;102248.38;;;8.25;100.00
10806;BME280;5455;53.224;6.000;2023-04-20T08:43:27;102247.25;;;8.26;100.00
10806;BME280;5455;53.224;6.000;2023-04-20T08:45:57;102243.44;;;8.49;100.00
10806;BME280;5455;53.224;6.000;2023-04-20T08:48:29;102244.69;;;8.43;100.00
10806;BME280;5455;53.224;6.000;2023-04-20T08:51:00;102250.44;;;8.19;100.00
10806;BME280;5455;53.224;6.000;2023-04-20T08:53:27;102246.97;;;8.14;100.00
10806;BME280;5455;53.224;6.000;2023-04-20T08:55:54;102240.19;;;7.98;100.00
10806;BME280;5455;53.224;6.000;2023-04-20T08:58:32;102244.31;;;8.09;100.00
10806;BME280;5455;53.224;6.000;2023-04-20T09:00:59;102242.28;;;8.14;100.00
10806;BME280;5455;53.224;6.000;2023-04-20T09:03:40;102241.50;;;8.00;100.00
10806;BME280;5455;53.224;6.000;2023-04-20T09:06:16;102231.50;;;8.18;100.00
10806;BME280;5455;53.224;6.000;2023-04-20T09:08:44;102233.88;;;7.97;100.00
10806;BME280;5455;53.224;6.000;2023-04-20T09:11:23;102235.59;;;7.93;100.00
10806;BME280;5455;53.224;6.000;2023-04-20T09:14:08;102240.06;;;8.03;100.00
10806;BME280;5455;53.224;6.000;2023-04-20T09:16:50;102234.59;;;7.89;100.00
10806;BME280;5455;53.224;6.000;2023-04-20T09:19:24;102234.06;;;8.01;100.00
10806;BME280;5455;53.224;6.000;2023-04-20T09:21:53;102229.91;;;8.03;100.00
10806;BME280;5455;53.224;6.000;2023-04-20T09:24:21;102234.34;;;8.13;100.00
10806;BME280;5455;53.224;6.000;2023-04-20T09:26:49;102232.72;;;8.12;100.00
10806;BME280;5455;53.224;6.000;2023-04-20T09:29:18;102227.63;;;8.19;100.00
10806;BME280;5455;53.224;6.000;2023-04-20T09:31:46;102229.38;;;8.28;100.00
10806;BME280;5455;53.224;6.000;2023-04-20T09:34:14;102218.13;;;8.39;100.00
10806;BME280;5455;53.224;6.000;2023-04-20T09:36:43;102219.66;;;8.67;100.00
10806;BME280;5455;53.224;6.000;2023-04-20T09:39:13;102226.81;;;8.99;100.00
10806;BME280;5455;53.224;6.000;2023-04-20T09:41:41;102235.44;;;8.83;100.00
10806;BME280;5455;53.224;6.000;2023-04-20T09:44:10;102222.03;;;8.60;100.00
10806;BME280;5455;53.224;6.000;2023-04-20T09:46:39;102223.78;;;8.56;100.00
10806;BME280;5455;53.224;6.000;2023-04-20T09:49:10;102223.72;;;8.69;100.00
10806;BME280;5455;53.224;6.000;2023-04-20T09:51:40;102229.88;;;8.75;100.00
10806;BME280;5455;53.224;6.000;2023-04-20T09:54:11;102222.56;;;8.93;100.00
10806;BME280;5455;53.224;6.000;2023-04-20T09:56:39;102213.66;;;9.18;100.00
10806;BME280;5455;53.224;6.000;2023-04-20T09:59:07;102211.31;;;9.33;100.00
10806;BME280;5455;53.224;6.000;2023-04-20T10:01:35;102218.22;;;9.70;100.00
10806;BME280;5455;53.224;6.000;2023-04-20T10:04:07;102224.41;;;9.67;100.00
10806;BME280;5455;53.224;6.000;2023-04-20T10:06:37;102237.03;;;9.68;100.00
10806;BME280;5455;53.224;6.000;2023-04-20T10:09:06;102220.19;;;9.61;100.00
10806;BME280;5455;53.224;6.000;2023-04-20T10:11:35;102215.66;;;9.74;100.00
10806;BME280;5455;53.224;6.000;2023-04-20T10:14:15;102203.50;;;9.75;100.00
10806;BME280;5455;53.224;6.000;2023-04-20T10:16:44;102213.25;;;9.81;100.00
10806;BME280;5455;53.224;6.000;2023-04-20T10:19:12;102201.91;;;9.82;100.00
10806;BME280;5455;53.224;6.000;2023-04-20T10:21:47;102206.34;;;9.53;100.00
10806;BME280;5455;53.224;6.000;2023-04-20T10:24:15;102209.91;;;9.53;100.00
10806;BME280;5455;53.224;6.000;2023-04-20T10:26:54;102198.94;;;9.70;100.00
10806;BME280;5455;53.224;6.000;2023-04-20T10:29:23;102187.19;;;9.95;100.00
10806;BME280;5455;53.224;6.000;2023-04-20T10:31:51;102198.22;;;10.04;100.00
10806;BME280;5455;53.224;6.000;2023-04-20T10:34:31;102202.59;;;9.96;100.00
10806;BME280;5455;53.224;6.000;2023-04-20T10:37:09;102202.59;;;10.05;100.00
10806;BME280;5455;53.224;6.000;2023-04-20T10:39:44;102214.75;;;10.13;100.00
10806;BME280;5455;53.224;6.000;2023-04-20T10:42:12;102201.69;;;10.18;100.00
10806;BME280;5455;53.224;6.000;2023-04-20T10:44:49;102197.91;;;10.06;100.00
10806;BME280;5455;53.224;6.000;2023-04-20T10:47:29;102208.78;;;10.11;100.00
10806;BME280;5455;53.224;6.000;2023-04-20T10:50:09;102218.16;;;10.10;100.00
10806;BME280;5455;53.224;6.000;2023-04-20T10:52:40;102209.03;;;9.75;100.00
10806;BME280;5455;53.224;6.000;2023-04-20T10:55:21;102213.56;;;9.79;100.00
10806;BME280;5455;53.224;6.000;2023-04-20T10:57:49;102222.31;;;9.73;100.00
10806;BME280;5455;53.224;6.000;2023-04-20T11:00:25;102201.03;;;9.56;100.00
10806;BME280;5455;53.224;6.000;2023-04-20T11:02:56;102205.06;;;9.50;100.00
10806;BME280;5455;53.224;6.000;2023-04-20T11:05:25;102205.38;;;9.49;100.00
10806;BME280;5455;53.224;6.000;2023-04-20T11:07:54;102207.97;;;9.45;100.00
10806;BME280;5455;53.224;6.000;2023-04-20T11:10:35;102206.41;;;9.22;100.00
10806;BME280;5455;53.224;6.000;2023-04-20T11:13:03;102210.06;;;9.09;100.00
10806;BME280;5455;53.224;6.000;2023-04-20T11:15:30;102185.25;;;9.00;100.00
10806;BME280;5455;53.224;6.000;2023-04-20T11:18:08;102185.25;;;9.00;100.00
10806;BME280;5455;53.224;6.000;2023-04-20T11:20:36;102201.78;;;9.09;100.00
10806;BME280;5455;53.224;6.000;2023-04-20T11:23:03;102189.16;;;9.08;100.00
10806;BME280;5455;53.224;6.000;2023-04-20T11:25:31;102195.56;;;8.95;100.00
10806;BME280;5455;53.224;6.000;2023-04-20T11:28:08;102182.69;;;9.04;100.00
10806;BME280;5455;53.224;6.000;2023-04-20T11:30:41;102175.63;;;9.20;100.00
10806;BME280;5455;53.224;6.000;2023-04-20T11:33:09;102167.28;;;9.42;100.00
10806;BME280;5455;53.224;6.000;2023-04-20T11:35:37;102181.94;;;9.60;100.00
10806;BME280;5455;53.224;6.000;2023-04-20T11:38:06;102165.75;;;9.58;100.00
10806;BME280;5455;53.224;6.000;2023-04-20T11:40:33;102169.06;;;9.38;100.00
10806;BME280;5455;53.224;6.000;2023-04-20T11:43:01;102172.91;;;9.28;100.00
10806;BME280;5455;53.224;6.000;2023-04-20T11:45:31;102176.16;;;9.30;100.00
10806;BME280;5455;53.224;6.000;2023-04-20T11:48:03;102176.47;;;9.29;100.00
10806;BME280;5455;53.224;6.000;2023-04-20T11:50:30;102162.66;;;9.60;100.00
10806;BME280;5455;53.224;6.000;2023-04-20T11:52:57;102158.38;;;10.19;100.00
10806;BME280;5455;53.224;6.000;2023-04-20T11:55:24;102166.94;;;10.51;100.00
10806;BME280;5455;53.224;6.000;2023-04-20T11:57:51;102163.13;;;10.99;100.00
10806;BME280;5455;53.224;6.000;2023-04-20T12:00:19;102166.53;;;11.04;100.00
10806;BME280;5455;53.224;6.000;2023-04-20T12:02:46;102167.25;;;10.84;100.00
10806;BME280;5455;53.224;6.000;2023-04-20T12:05:13;102166.91;;;10.86;100.00
10806;BME280;5455;53.224;6.000;2023-04-20T12:07:40;102170.41;;;11.03;100.00
10806;BME280;5455;53.224;6.000;2023-04-20T12:10:09;102166.22;;;10.97;100.00
10806;BME280;5455;53.224;6.000;2023-04-20T12:12:36;102170.59;;;10.98;100.00
10806;BME280;5455;53.224;6.000;2023-04-20T12:15:04;102159.63;;;10.73;100.00
10806;BME280;5455;53.224;6.000;2023-04-20T12:17:32;102171.94;;;10.84;100.00
10806;BME280;5455;53.224;6.000;2023-04-20T12:19:59;102158.84;;;11.19;100.00
10806;BME280;5455;53.224;6.000;2023-04-20T12:22:26;102171.78;;;11.35;100.00
10806;BME280;5455;53.224;6.000;2023-04-20T12:24:54;102162.03;;;11.29;100.00
10806;BME280;5455;53.224;6.000;2023-04-20T12:27:21;102162.59;;;11.81;100.00
10806;BME280;5455;53.224;6.000;2023-04-20T12:29:48;102159.03;;;11.43;100.00
10806;BME280;5455;53.224;6.000;2023-04-20T12:32:15;102165.44;;;11.35;100.00
10806;BME280;5455;53.224;6.000;2023-04-20T12:34:42;102153.41;;;11.31;100.00
10806;BME280;5455;53.224;6.000;2023-04-20T12:37:09;102157.56;;;11.45;100.00
10806;BME280;5455;53.224;6.000;2023-04-20T12:39:36;102151.97;;;11.92;100.00
10806;BME280;5455;53.224;6.000;2023-04-20T12:42:03;102164.22;;;12.24;100.00
10806;BME280;5455;53.224;6.000;2023-04-20T12:44:30;102161.19;;;12.37;100.00
10806;BME280;5455;53.224;6.000;2023-04-20T12:46:57;102159.56;;;11.74;100.00
10806;BME280;5455;53.224;6.000;2023-04-20T12:49:24;102144.81;;;11.61;100.00
10806;BME280;5455;53.224;6.000;2023-04-20T12:51:51;102159.91;;;11.64;100.00
10806;BME280;5455;53.224;6.000;2023-04-20T12:54:18;102157.81;;;11.32;100.00
10806;BME280;5455;53.224;6.000;2023-04-20T12:56:46;102163.81;;;11.34;100.00
10806;BME280;5455;53.224;6.000;2023-04-20T12:59:13;102159.41;;;11.33;100.00
10806;BME280;5455;53.224;6.000;2023-04-20T13:01:40;102164.03;;;11.12;100.00
10806;BME280;5455;53.224;6.000;2023-04-20T13:04:06;102167.66;;;11.03;100.00
10806;BME280;5455;53.224;6.000;2023-04-20T13:06:34;102158.84;;;11.19;100.00
10806;BME280;5455;53.224;6.000;2023-04-20T13:09:01;102157.50;;;11.25;100.00